createdAt,value
2023-02-19T00:08:18.389Z,8.70
2023-02-19T00:18:23.503Z,8.80
2023-02-19T00:28:27.221Z,8.10
2023-02-19T00:38:32.887Z,7.70
2023-02-19T00:48:36.646Z,8.20
2023-02-19T00:58:41.943Z,8.20
2023-02-19T01:08:45.822Z,8.40
2023-02-19T01:18:50.903Z,8.00
2023-02-19T01:28:55.216Z,7.90
2023-02-19T01:39:04.397Z,7.60
2023-02-19T01:49:12.109Z,7.60
2023-02-19T01:59:18.327Z,7.60
2023-02-19T02:09:40.881Z,7.40
2023-02-19T02:20:08.196Z,7.70
2023-02-19T02:30:33.199Z,8.00
2023-02-19T02:40:38.016Z,7.80
2023-02-19T02:50:47.497Z,7.60
2023-02-19T03:01:13.804Z,7.60
2023-02-19T03:11:36.649Z,7.80
2023-02-19T03:21:42.585Z,7.50
2023-02-19T03:31:49.369Z,7.50
2023-02-19T03:42:01.642Z,7.90
2023-02-19T03:52:15.321Z,8.50
2023-02-19T04:02:30.279Z,8.50
2023-02-19T04:12:37.746Z,8.60
2023-02-19T04:22:42.742Z,8.50
2023-02-19T04:32:47.855Z,8.40
2023-02-19T04:42:51.716Z,8.60
2023-02-19T04:52:56.824Z,9.10
2023-02-19T05:03:00.690Z,9.00
2023-02-19T05:13:05.863Z,8.40
2023-02-19T05:23:09.499Z,8.20
2023-02-19T05:33:15.150Z,8.20
2023-02-19T05:43:19.262Z,8.40
2023-02-19T05:53:24.380Z,8.80
2023-02-19T06:03:28.685Z,9.20
2023-02-19T06:13:33.990Z,8.90
2023-02-19T06:23:37.889Z,8.50
2023-02-19T06:33:43.391Z,7.40
2023-02-19T06:43:49.229Z,7.30
2023-02-19T06:53:54.493Z,7.80
2023-02-19T07:03:58.445Z,7.50
2023-02-19T07:14:05.812Z,7.50
2023-02-19T07:24:10.216Z,7.60
2023-02-19T07:34:15.666Z,7.70
2023-02-19T07:44:19.420Z,8.00
2023-02-19T07:54:24.505Z,8.60
2023-02-19T08:04:28.393Z,9.50
2023-02-19T08:14:33.574Z,10.20
2023-02-19T08:24:39.627Z,10.70
2023-02-19T08:34:44.923Z,11.50
2023-02-19T08:44:48.612Z,12.00
2023-02-19T08:54:53.712Z,12.20
2023-02-19T09:04:57.547Z,12.80
2023-02-19T09:15:03.074Z,13.30
2023-02-19T09:25:07.410Z,13.30
2023-02-19T09:35:12.427Z,13.30
2023-02-19T09:45:21.129Z,13.20
2023-02-19T09:55:33.082Z,13.60
2023-02-19T10:05:37.321Z,13.80
2023-02-19T10:15:48.512Z,13.90
2023-02-19T10:25:57.387Z,14.40
2023-02-19T10:36:06.278Z,15.10
2023-02-19T10:46:18.637Z,16.00
2023-02-19T10:56:29.172Z,16.60
2023-02-19T11:06:35.018Z,16.60
2023-02-19T11:16:43.853Z,16.70
2023-02-19T11:26:47.767Z,16.90
2023-02-19T11:37:10.337Z,17.70
2023-02-19T11:47:37.049Z,18.10
2023-02-19T11:57:45.481Z,18.80
2023-02-19T12:08:30.988Z,18.20
2023-02-19T12:19:04.222Z,18.10
2023-02-19T12:29:28.233Z,18.70
2023-02-19T12:39:47.762Z,19.00
2023-02-19T12:49:58.219Z,19.40
2023-02-19T13:00:09.446Z,19.40
2023-02-19T13:10:26.458Z,20.70
2023-02-19T13:20:33.961Z,20.90
2023-02-19T13:30:59.015Z,20.80
2023-02-19T13:41:04.299Z,21.50
2023-02-19T13:51:47.379Z,20.90
2023-02-19T14:02:35.792Z,20.80
2023-02-19T14:12:40.986Z,20.70
2023-02-19T14:23:10.858Z,20.90
2023-02-19T14:33:19.045Z,20.80
2023-02-19T14:43:25.976Z,20.80
2023-02-19T14:53:34.440Z,20.70
2023-02-19T15:03:42.564Z,21.50
2023-02-19T15:13:51.804Z,22.10
2023-02-19T15:23:57.247Z,21.70
2023-02-19T15:34:02.447Z,21.90
2023-02-19T15:44:21.757Z,20.60
2023-02-19T15:54:32.320Z,20.20
2023-02-19T16:04:36.955Z,19.90
2023-02-19T16:14:42.138Z,20.50
2023-02-19T16:24:49.255Z,20.40
2023-02-19T16:34:54.634Z,19.90
2023-02-19T16:44:58.379Z,18.90
2023-02-19T16:55:04.081Z,18.20
2023-02-19T17:05:08.150Z,16.80
2023-02-19T17:15:13.765Z,16.00
2023-02-19T17:25:17.718Z,15.30
2023-02-19T17:35:23.299Z,14.40
2023-02-19T17:45:26.985Z,13.90
2023-02-19T17:55:32.164Z,14.40
2023-02-19T18:05:36.324Z,13.80
2023-02-19T18:15:41.530Z,12.60
2023-02-19T18:25:45.587Z,12.60
2023-02-19T18:35:51.159Z,12.70
2023-02-19T18:45:54.948Z,12.10
2023-02-19T18:56:02.287Z,12.00
2023-02-19T19:06:06.531Z,12.00
2023-02-19T19:16:11.727Z,11.70
2023-02-19T19:26:15.739Z,11.80
2023-02-19T19:36:24.354Z,11.60
2023-02-19T19:46:29.019Z,11.00
2023-02-19T19:56:34.295Z,11.00
2023-02-19T20:06:38.139Z,10.80
2023-02-19T20:16:44.736Z,11.00
2023-02-19T20:26:48.719Z,10.70
2023-02-19T20:36:54.038Z,10.70
2023-02-19T20:47:00.124Z,10.50
2023-02-19T20:57:07.344Z,10.20
2023-02-19T21:07:11.230Z,10.50
2023-02-19T21:17:18.996Z,10.20
2023-02-19T21:27:22.993Z,10.00
2023-02-19T21:37:28.533Z,10.20
2023-02-19T21:47:32.323Z,10.10
2023-02-19T21:57:37.819Z,10.00
2023-02-19T22:07:41.547Z,10.10
2023-02-19T22:17:46.988Z,9.80
2023-02-19T22:27:50.858Z,9.90
2023-02-19T22:37:56.107Z,9.80
2023-02-19T22:47:59.937Z,10.10
2023-02-19T22:58:05.113Z,9.80
2023-02-19T23:08:08.694Z,9.90
2023-02-19T23:18:13.813Z,9.90
2023-02-19T23:28:17.474Z,9.60
2023-02-19T23:38:23.175Z,9.80
2023-02-19T23:48:26.836Z,9.40
2023-02-19T23:58:32.082Z,9.50
